Time;durP1;ratioP1;P1;durP2;ratioP2;P2;SDS_P1;SDS_P2;PMS_P1;PMS_P2;Temp;Humidity;BMP_temperature;BMP_pressure;BME280_temperature;BME280_humidity;BME280_pressure;Samples;Min_cycle;Max_cycle;Signal;HPM_P1;HPM_P2
2021/11/27 00:01:56;;;;;;;;;6.75;5.25;;;;;8.38;64.18;98807.66;5080097;27;45405;-84
2021/11/27 00:04:22;;;;;;;;;4.75;4.75;;;;;8.40;64.27;98809.25;5092694;27;45510;-84
2021/11/27 00:06:47;;;;;;;;;5.25;4.25;;;;;8.40;64.38;98808.41;5079308;27;46019;-84
2021/11/27 00:09:13;;;;;;;;;6.75;5.25;;;;;8.39;65.00;98809.34;5077246;27;45416;-84
2021/11/27 00:11:39;;;;;;;;;4.25;3.75;;;;;8.37;64.73;98812.03;5080183;27;45468;-84
2021/11/27 00:14:06;;;;;;;;;4.00;3.00;;;;;8.38;64.04;98807.66;5070521;27;45673;-84
2021/11/27 00:16:32;;;;;;;;;4.50;4.00;;;;;8.38;64.41;98805.03;5080626;27;45271;-84
2021/11/27 00:18:58;;;;;;;;;5.00;4.50;;;;;8.32;64.04;98793.97;5078248;28;47181;-83
2021/11/27 00:21:24;;;;;;;;;5.50;3.50;;;;;8.32;64.07;98807.06;5080397;27;45212;-84
2021/11/27 00:23:52;;;;;;;;;5.75;4.00;;;;;8.29;63.75;98804.63;5080621;27;45416;-84
2021/11/27 00:26:19;;;;;;;;;3.25;3.25;;;;;8.27;63.44;98806.47;5075608;28;46434;-84
2021/11/27 00:28:46;;;;;;;;;7.00;4.00;;;;;8.25;63.60;98800.47;5075649;28;47185;-84
2021/11/27 00:31:23;;;;;;;;;8.00;3.50;;;;;8.23;64.07;98802.34;5087932;27;45627;-85
2021/11/27 00:33:50;;;;;;;;;5.50;4.00;;;;;8.23;63.47;98807.56;5074737;27;45437;-82
2021/11/27 00:36:16;;;;;;;;;5.25;2.00;;;;;8.19;63.38;98803.44;5076255;27;45440;-81
2021/11/27 00:38:42;;;;;;;;;6.25;3.75;;;;;8.17;63.17;98802.69;5079850;27;45524;-82
2021/11/27 00:41:09;;;;;;;;;5.00;4.00;;;;;8.15;63.74;98805.34;5087153;27;45496;-82
2021/11/27 00:43:35;;;;;;;;;7.00;4.00;;;;;8.12;62.92;98800.31;5079102;27;45563;-82
2021/11/27 00:46:01;;;;;;;;;4.00;4.00;;;;;8.14;63.38;98810.69;5080111;27;45354;-82
2021/11/27 00:48:27;;;;;;;;;5.00;4.00;;;;;8.11;63.65;98793.38;5079744;27;45470;-82
2021/11/27 00:50:58;;;;;;;;;3.75;3.75;;;;;8.11;63.44;98798.59;5078109;27;45184;-82
2021/11/27 00:53:23;;;;;;;;;2.50;2.50;;;;;8.08;63.65;98801.38;5080026;27;45432;-82
2021/11/27 00:55:49;;;;;;;;;4.50;3.75;;;;;8.04;63.47;98805.97;5080165;27;45488;-84
2021/11/27 00:58:16;;;;;;;;;6.00;3.00;;;;;8.04;63.52;98800.72;5079888;28;45379;-86
2021/11/27 01:00:45;;;;;;;;;3.00;3.00;;;;;8.05;63.26;98809.44;5079715;27;45439;-87
2021/11/27 01:03:12;;;;;;;;;4.00;4.00;;;;;8.03;63.61;98812.09;5080310;27;45277;-87
2021/11/27 01:05:39;;;;;;;;;4.00;4.00;;;;;8.02;63.07;98820.03;5079747;27;45449;-86
2021/11/27 01:08:05;;;;;;;;;3.25;3.25;;;;;7.99;63.31;98821.91;5082643;28;45362;-86
2021/11/27 01:10:34;;;;;;;;;2.25;2.25;;;;;7.97;63.13;98813.28;5077136;27;45287;-86
2021/11/27 01:13:00;;;;;;;;;2.50;2.50;;;;;7.98;62.83;98814.97;5083631;27;45238;-88
2021/11/27 01:15:28;;;;;;;;;3.25;2.00;;;;;7.97;62.53;98815.06;5083088;27;45473;-87
2021/11/27 01:17:56;;;;;;;;;1.00;1.00;;;;;7.93;61.98;98816.13;5083149;27;45428;-88
2021/11/27 01:20:26;;;;;;;;;6.25;3.00;;;;;7.88;62.21;98811.13;5083154;27;45807;-89
2021/11/27 01:22:52;;;;;;;;;1.25;1.00;;;;;7.84;62.51;98801.78;5084888;27;45524;-91
2021/11/27 01:25:18;;;;;;;;;1.00;1.00;;;;;7.86;61.96;98798.16;5093350;27;45557;-87
2021/11/27 01:27:44;;;;;;;;;1.00;1.00;;;;;7.83;62.06;98784.38;5083000;27;46150;-86
2021/11/27 01:30:12;;;;;;;;;1.00;1.00;;;;;7.84;61.90;98780.84;5084006;27;45305;-87
2021/11/27 01:32:38;;;;;;;;;0.75;0.75;;;;;7.81;61.67;98778.41;5082353;27;45538;-90
2021/11/27 01:35:05;;;;;;;;;2.00;2.00;;;;;7.78;61.48;98782.00;5093048;27;45337;-91
2021/11/27 01:37:40;;;;;;;;;1.00;1.00;;;;;7.80;61.79;98785.41;5081287;27;46883;-87
2021/11/27 01:40:09;;;;;;;;;3.75;1.75;;;;;7.76;61.62;98784.72;5082062;28;45301;-85
2021/11/27 01:42:35;;;;;;;;;1.00;0.00;;;;;7.74;60.35;98777.88;5083056;27;45313;-86
2021/11/27 01:45:00;;;;;;;;;1.00;1.00;;;;;7.64;61.26;98775.75;5082562;27;45301;-87
2021/11/27 01:47:26;;;;;;;;;1.50;1.00;;;;;7.65;61.43;98785.28;5082812;27;46265;-87
2021/11/27 01:49:52;;;;;;;;;2.00;1.00;;;;;7.64;61.21;98783.59;5082901;28;45459;-86
2021/11/27 01:52:18;;;;;;;;;2.50;2.00;;;;;7.63;61.81;98781.91;5081010;28;45229;-87
2021/11/27 01:54:44;;;;;;;;;2.75;1.75;;;;;7.63;61.87;98779.28;5081908;27;45568;-87
2021/11/27 01:57:10;;;;;;;;;1.50;1.50;;;;;7.59;61.93;98785.59;5082841;28;46598;-87
2021/11/27 01:59:39;;;;;;;;;2.50;1.75;;;;;7.54;62.38;98778.00;5091847;27;45203;-87
2021/11/27 02:02:08;;;;;;;;;2.75;1.25;;;;;7.53;62.39;98783.31;5085382;27;45415;-87
2021/11/27 02:04:34;;;;;;;;;3.00;3.00;;;;;7.47;61.97;98781.88;5082612;27;45429;-86
2021/11/27 02:06:59;;;;;;;;;1.00;1.00;;;;;7.45;62.43;98788.09;5082333;27;45226;-86
2021/11/27 02:09:29;;;;;;;;;2.50;1.00;;;;;7.38;61.90;98777.13;5077430;27;45316;-86
2021/11/27 02:11:57;;;;;;;;;3.00;1.25;;;;;7.35;62.72;98775.50;5082623;27;45300;-85
2021/11/27 02:14:22;;;;;;;;;0.25;0.25;;;;;7.34;62.83;98779.03;5080972;27;45410;-87
2021/11/27 02:16:49;;;;;;;;;1.00;1.00;;;;;7.32;62.18;98775.66;5081794;28;45398;-86
2021/11/27 02:19:16;;;;;;;;;1.50;1.50;;;;;7.33;62.82;98772.13;5071730;27;45754;-86
2021/11/27 02:21:44;;;;;;;;;1.50;1.50;;;;;7.31;62.98;98763.50;5077967;28;45518;-86
2021/11/27 02:24:12;;;;;;;;;1.25;0.75;;;;;7.29;62.76;98768.81;5070063;27;45507;-87
2021/11/27 02:26:37;;;;;;;;;2.00;0.50;;;;;7.31;62.60;98779.19;5077022;27;45386;-87
2021/11/27 02:29:09;;;;;;;;;1.00;1.00;;;;;7.29;62.97;98775.81;5078988;28;45298;-86
2021/11/27 02:31:35;;;;;;;;;1.25;1.25;;;;;7.30;63.05;98761.81;5078678;27;45298;-88
2021/11/27 02:34:03;;;;;;;;;1.25;0.75;;;;;7.29;62.84;98760.13;5076666;27;45330;-86
2021/11/27 02:36:29;;;;;;;;;3.00;1.50;;;;;7.30;62.97;98748.75;5081922;27;45276;-87
2021/11/27 02:38:56;;;;;;;;;2.25;0.00;;;;;7.31;62.08;98747.81;5081943;27;45619;-86
2021/11/27 02:41:22;;;;;;;;;0.75;0.00;;;;;7.29;61.94;98749.66;5082294;27;45350;-83
2021/11/27 02:43:48;;;;;;;;;1.50;0.25;;;;;7.27;61.88;98751.53;5081898;27;45283;-86
2021/11/27 02:46:14;;;;;;;;;1.00;0.25;;;;;7.27;62.26;98754.13;5082156;27;45536;-89
2021/11/27 02:48:41;;;;;;;;;0.00;0.00;;;;;7.26;61.95;98749.84;5097148;27;45337;-89
2021/11/27 02:51:07;;;;;;;;;0.00;0.00;;;;;7.24;61.98;98747.28;5079087;28;45374;-87
2021/11/27 02:53:32;;;;;;;;;1.00;1.00;;;;;7.20;62.15;98751.84;5081948;27;45476;-86
2021/11/27 02:55:58;;;;;;;;;1.00;1.00;;;;;7.20;61.93;98740.53;5081612;27;45716;-86
2021/11/27 02:58:23;;;;;;;;;0.00;0.00;;;;;7.17;61.13;98736.31;5094186;27;45236;-87
2021/11/27 03:00:50;;;;;;;;;1.00;0.00;;;;;7.16;61.26;98737.22;5081493;27;45243;-88
2021/11/27 03:03:16;;;;;;;;;1.00;1.00;;;;;7.15;61.57;98732.09;5081588;27;45490;-87
2021/11/27 03:05:41;;;;;;;;;1.00;1.00;;;;;7.10;61.17;98734.94;5081828;27;45408;-87
2021/11/27 03:08:07;;;;;;;;;0.75;0.75;;;;;7.06;61.73;98726.41;5081413;27;45218;-87
2021/11/27 03:10:33;;;;;;;;;0.25;0.25;;;;;7.02;61.77;98724.03;5067721;27;46235;-85
2021/11/27 03:12:58;;;;;;;;;0.00;0.00;;;;;7.00;61.74;98721.50;5081523;27;45398;-86
2021/11/27 03:15:24;;;;;;;;;0.00;0.00;;;;;7.01;61.53;98717.13;5081271;28;45377;-88
2021/11/27 03:17:49;;;;;;;;;0.00;0.00;;;;;6.98;62.07;98711.13;5074604;28;45330;-85
2021/11/27 03:20:16;;;;;;;;;0.00;0.00;;;;;6.92;61.30;98706.22;5080625;28;45244;-85
2021/11/27 03:22:42;;;;;;;;;1.00;0.00;;;;;6.89;62.21;98710.75;5081093;27;45460;-85
2021/11/27 03:25:10;;;;;;;;;2.25;1.00;;;;;6.84;61.81;98714.44;5081406;27;45384;-85
2021/11/27 03:27:37;;;;;;;;;0.00;0.00;;;;;6.82;61.71;98710.19;5079820;27;45310;-87
2021/11/27 03:30:08;;;;;;;;;0.00;0.00;;;;;6.79;62.16;98699.94;5079157;27;45333;-86
2021/11/27 03:32:34;;;;;;;;;1.00;1.00;;;;;6.78;61.72;98706.06;5079928;28;47110;-85
2021/11/27 03:35:00;;;;;;;;;0.00;0.00;;;;;6.74;61.91;98706.22;5075537;27;48107;-86
2021/11/27 03:37:25;;;;;;;;;1.00;0.00;;;;;6.73;62.83;98704.53;5074077;28;45343;-86
2021/11/27 03:39:51;;;;;;;;;1.00;0.25;;;;;6.70;62.10;98702.06;5081135;27;45208;-86
2021/11/27 03:42:17;;;;;;;;;1.00;0.00;;;;;6.70;62.08;98707.28;5081112;27;45394;-85
2021/11/27 03:44:44;;;;;;;;;0.00;0.00;;;;;6.65;62.74;98698.84;5078998;27;47915;-83
2021/11/27 03:47:10;;;;;;;;;0.00;0.00;;;;;6.65;62.36;98704.06;5081101;27;45423;-83
2021/11/27 03:49:36;;;;;;;;;0.00;0.00;;;;;6.61;61.89;98694.69;5080015;28;45438;-85
2021/11/27 03:52:03;;;;;;;;;0.25;0.00;;;;;6.62;62.31;98698.97;5080921;27;45316;-83
2021/11/27 03:54:28;;;;;;;;;1.00;1.00;;;;;6.60;62.43;98700.81;5080629;27;47575;-84
2021/11/27 03:56:55;;;;;;;;;1.25;0.00;;;;;6.58;62.34;98694.84;5096594;27;45585;-86
2021/11/27 03:59:22;;;;;;;;;0.00;0.00;;;;;6.58;62.16;98692.22;5080808;27;45249;-85
2021/11/27 04:01:48;;;;;;;;;1.75;1.00;;;;;6.52;62.65;98685.53;5080033;27;45459;-84
2021/11/27 04:04:14;;;;;;;;;1.00;1.00;;;;;6.50;62.71;98688.25;5080786;27;45469;-82
2021/11/27 04:06:40;;;;;;;;;1.75;0.00;;;;;6.48;62.44;98681.41;5080563;27;45445;-82
2021/11/27 04:09:07;;;;;;;;;1.00;0.00;;;;;6.48;62.60;98679.66;5081020;27;45424;-82
2021/11/27 04:11:34;;;;;;;;;1.00;1.00;;;;;6.47;62.30;98682.34;5080719;28;45551;-86
2021/11/27 04:13:59;;;;;;;;;0.25;0.25;;;;;6.43;62.81;98678.16;5080491;27;45500;-87
2021/11/27 04:16:25;;;;;;;;;2.50;1.00;;;;;6.38;62.56;98673.19;5080675;27;45213;-87
2021/11/27 04:18:51;;;;;;;;;0.00;0.00;;;;;6.38;62.57;98675.78;5081241;27;45247;-85
2021/11/27 04:21:18;;;;;;;;;0.00;0.00;;;;;6.36;62.73;98669.81;5080172;27;45233;-86
2021/11/27 04:23:44;;;;;;;;;0.00;0.00;;;;;6.35;62.91;98671.56;5080336;27;45582;-83
2021/11/27 04:26:09;;;;;;;;;0.50;0.50;;;;;6.30;62.74;98656.13;5080632;27;45416;-83
2021/11/27 04:28:34;;;;;;;;;0.00;0.00;;;;;6.29;62.46;98654.47;5080339;27;45320;-84
2021/11/27 04:31:00;;;;;;;;;1.00;1.00;;;;;6.26;62.85;98649.38;5072963;27;45386;-84
2021/11/27 04:33:26;;;;;;;;;0.00;0.00;;;;;6.24;62.80;98648.63;5088485;27;45435;-85
2021/11/27 04:35:52;;;;;;;;;0.25;0.25;;;;;6.21;62.47;98643.53;5085563;27;45556;-87
2021/11/27 04:38:18;;;;;;;;;0.00;0.00;;;;;6.18;62.24;98654.13;5078123;27;45222;-86
2021/11/27 04:40:44;;;;;;;;;0.50;0.00;;;;;6.17;62.84;98657.66;5075150;28;45309;-84
2021/11/27 04:43:09;;;;;;;;;2.00;0.25;;;;;6.17;62.57;98661.09;5092542;27;48455;-84
2021/11/27 04:45:35;;;;;;;;;1.00;0.00;;;;;6.18;62.91;98664.56;5082476;27;45283;-84
2021/11/27 04:48:01;;;;;;;;;1.00;1.00;;;;;6.17;62.97;98655.88;5076365;28;45406;-85
2021/11/27 04:50:30;;;;;;;;;0.25;0.00;;;;;6.17;62.88;98645.44;5080921;27;45467;-83
2021/11/27 04:52:56;;;;;;;;;1.00;1.00;;;;;6.19;62.55;98651.47;5079760;28;46353;-83
2021/11/27 04:55:22;;;;;;;;;2.00;0.50;;;;;6.17;62.58;98673.31;5080064;27;45421;-84
2021/11/27 04:57:47;;;;;;;;;0.50;0.50;;;;;6.19;62.77;98674.09;5080229;27;45278;-84
2021/11/27 05:00:21;;;;;;;;;1.00;1.00;;;;;6.19;62.65;98672.31;5078590;27;45428;-85
2021/11/27 05:02:46;;;;;;;;;1.25;1.00;;;;;6.20;62.78;98673.16;5079831;28;45497;-85
2021/11/27 05:05:12;;;;;;;;;0.00;0.00;;;;;6.19;62.85;98661.03;5079702;27;45291;-86
2021/11/27 05:07:37;;;;;;;;;3.00;1.00;;;;;6.18;62.52;98664.56;5082565;27;45298;-85
2021/11/27 05:10:03;;;;;;;;;2.75;1.50;;;;;6.16;62.81;98674.22;5089487;27;45470;-85
2021/11/27 05:12:29;;;;;;;;;1.00;1.00;;;;;6.16;62.13;98674.22;5089220;27;45494;-85
2021/11/27 05:14:54;;;;;;;;;0.25;0.00;;;;;6.11;62.41;98657.94;5099115;27;45255;-85
2021/11/27 05:17:20;;;;;;;;;3.00;0.75;;;;;6.12;62.95;98664.88;5080090;27;45272;-85
2021/11/27 05:19:46;;;;;;;;;1.00;1.00;;;;;6.10;62.56;98664.09;5079485;27;45531;-83
2021/11/27 05:22:12;;;;;;;;;0.75;0.75;;;;;6.10;62.80;98662.31;5079664;27;45651;-82
2021/11/27 05:24:43;;;;;;;;;2.75;1.00;;;;;6.08;62.41;98645.88;5079540;27;45715;-82
2021/11/27 05:27:10;;;;;;;;;2.00;1.00;;;;;6.08;62.84;98640.69;5079811;27;45282;-83
2021/11/27 05:29:35;;;;;;;;;1.00;0.25;;;;;6.11;62.57;98637.94;5079078;27;45553;-93
2021/11/27 05:32:04;;;;;;;;;3.50;1.00;;;;;6.11;62.46;98635.31;5083949;27;46873;-90
2021/11/27 05:34:33;;;;;;;;;3.25;1.00;;;;;6.14;62.17;98622.13;5079355;27;45788;-92
2021/11/27 05:37:01;;;;;;;;;1.25;1.25;;;;;6.12;62.71;98599.66;5080025;28;45266;-89
2021/11/27 05:39:27;;;;;;;;;0.75;0.75;;;;;6.14;62.47;98600.41;5079183;28;45297;-88
2021/11/27 05:41:52;;;;;;;;;1.75;0.00;;;;;6.15;62.74;98596.91;5079402;28;45422;-89
2021/11/27 05:44:17;;;;;;;;;2.00;0.25;;;;;6.18;62.53;98601.94;5079391;27;45568;-85
2021/11/27 05:46:43;;;;;;;;;0.00;0.00;;;;;6.16;62.79;98598.56;5079524;27;45325;-82
2021/11/27 05:49:08;;;;;;;;;2.50;1.00;;;;;6.18;62.51;98608.00;5079392;27;45531;-85
2021/11/27 05:51:33;;;;;;;;;0.25;0.25;;;;;6.20;62.48;98613.16;5077834;28;47978;-83
2021/11/27 05:53:59;;;;;;;;;1.75;0.50;;;;;6.18;62.52;98607.16;5082162;27;45457;-83
2021/11/27 05:56:25;;;;;;;;;3.00;0.50;;;;;6.24;62.70;98612.09;5083186;27;45635;-83
2021/11/27 05:58:50;;;;;;;;;2.75;1.75;;;;;6.22;62.73;98611.34;5094229;27;45414;-83
2021/11/27 06:01:15;;;;;;;;;1.00;1.00;;;;;6.24;62.47;98606.03;5078364;27;45491;-83
2021/11/27 06:03:41;;;;;;;;;3.25;1.00;;;;;6.26;62.86;98610.25;5079327;28;45339;-83
2021/11/27 06:06:06;;;;;;;;;1.50;1.50;;;;;6.29;63.17;98622.31;5082728;27;45321;-83
2021/11/27 06:08:32;;;;;;;;;1.50;0.75;;;;;6.29;62.88;98612.72;5082000;27;45419;-83
2021/11/27 06:10:58;;;;;;;;;0.25;0.25;;;;;6.33;62.90;98620.38;5082208;28;45579;-82
2021/11/27 06:13:23;;;;;;;;;1.00;1.00;;;;;6.36;62.41;98618.47;5075048;28;45279;-84
2021/11/27 06:15:49;;;;;;;;;2.50;1.25;;;;;6.36;62.23;98612.41;5075757;28;45613;-86
2021/11/27 06:18:14;;;;;;;;;2.00;1.25;;;;;6.36;62.76;98621.06;5081402;27;45225;-88
2021/11/27 06:20:40;;;;;;;;;3.75;0.50;;;;;6.35;62.57;98615.91;5081708;27;45273;-86
2021/11/27 06:23:05;;;;;;;;;0.25;0.25;;;;;6.38;62.21;98619.22;5082303;27;45214;-81
2021/11/27 06:25:31;;;;;;;;;1.00;1.00;;;;;6.42;62.50;98609.47;5103740;27;45352;-86
2021/11/27 06:27:56;;;;;;;;;1.00;0.00;;;;;6.45;62.68;98609.31;5089464;27;45237;-86
2021/11/27 06:30:23;;;;;;;;;1.00;1.00;;;;;6.44;62.12;98606.81;5077223;27;45232;-86
2021/11/27 06:32:49;;;;;;;;;0.00;0.00;;;;;6.45;61.99;98600.63;5075479;28;45337;-81
2021/11/27 06:35:14;;;;;;;;;3.50;2.00;;;;;6.46;62.51;98597.13;5071943;27;45255;-81
2021/11/27 06:37:40;;;;;;;;;2.50;1.00;;;;;6.47;62.51;98597.03;5071810;28;45328;-82
2021/11/27 06:40:06;;;;;;;;;1.00;1.00;;;;;6.51;62.34;98602.97;5068451;27;45399;-81
2021/11/27 06:42:32;;;;;;;;;2.00;0.50;;;;;6.48;62.35;98601.34;5082292;27;45386;-83
2021/11/27 06:44:57;;;;;;;;;3.25;0.25;;;;;6.49;62.33;98592.59;5081848;27;45435;-82
2021/11/27 06:47:23;;;;;;;;;1.25;1.25;;;;;6.50;62.45;98596.03;5097832;27;47010;-82
2021/11/27 06:49:51;;;;;;;;;2.50;1.00;;;;;6.52;62.03;98592.44;5067527;27;45395;-80
2021/11/27 06:52:17;;;;;;;;;0.75;0.75;;;;;6.57;62.59;98593.97;5068626;28;45165;-80
2021/11/27 06:54:43;;;;;;;;;1.50;1.50;;;;;6.56;62.22;98594.88;5081745;27;45473;-80
2021/11/27 06:57:09;;;;;;;;;1.00;1.00;;;;;6.55;62.16;98604.47;5082137;27;45443;-80
2021/11/27 06:59:37;;;;;;;;;4.25;1.00;;;;;6.56;61.96;98592.28;5081416;27;46550;-80
2021/11/27 07:02:03;;;;;;;;;1.00;1.00;;;;;6.53;62.20;98596.75;5081801;27;45207;-80
2021/11/27 07:04:29;;;;;;;;;1.50;0.25;;;;;6.51;62.85;98602.97;5073875;28;45262;-80
2021/11/27 07:06:54;;;;;;;;;3.75;2.00;;;;;6.50;62.75;98604.72;5078080;28;45397;-80
2021/11/27 07:09:20;;;;;;;;;1.00;1.00;;;;;6.46;63.21;98599.72;5081339;27;45734;-80
2021/11/27 07:11:45;;;;;;;;;2.75;1.00;;;;;6.44;62.98;98596.38;5076085;27;45330;-80
2021/11/27 07:14:11;;;;;;;;;1.00;1.00;;;;;6.45;63.47;98591.06;5094117;27;45436;-82
2021/11/27 07:16:37;;;;;;;;;0.50;0.00;;;;;6.44;63.35;98585.91;5097262;27;46239;-82
2021/11/27 07:19:04;;;;;;;;;1.00;1.00;;;;;6.40;63.67;98580.00;5097246;27;47201;-80
2021/11/27 07:21:29;;;;;;;;;1.00;1.00;;;;;6.38;63.39;98589.66;5081525;27;45655;-80
2021/11/27 07:23:55;;;;;;;;;3.00;2.00;;;;;6.39;63.67;98605.28;5080301;27;45444;-80
2021/11/27 07:26:21;;;;;;;;;1.00;0.00;;;;;6.42;64.20;98606.84;5080584;27;45580;-80
2021/11/27 07:28:48;;;;;;;;;3.25;2.00;;;;;6.37;63.96;98601.88;5081041;27;45486;-81
2021/11/27 07:31:14;;;;;;;;;1.00;1.00;;;;;6.38;64.05;98590.53;5081069;27;45742;-81
2021/11/27 07:33:39;;;;;;;;;2.00;1.00;;;;;6.36;64.44;98599.34;5081470;27;45442;-79
2021/11/27 07:36:06;;;;;;;;;0.50;0.00;;;;;6.34;64.17;98602.03;5081256;27;45218;-79
2021/11/27 07:38:32;;;;;;;;;1.00;1.00;;;;;6.32;64.04;98603.03;5081083;27;45422;-79
2021/11/27 07:40:58;;;;;;;;;0.75;0.75;;;;;6.32;64.55;98610.88;5076497;28;45536;-81
2021/11/27 07:43:24;;;;;;;;;0.00;0.00;;;;;6.32;64.61;98595.22;5077719;28;45311;-80
2021/11/27 07:45:49;;;;;;;;;1.00;1.00;;;;;6.28;64.28;98604.94;5081197;27;45432;-80
2021/11/27 07:48:15;;;;;;;;;1.25;1.25;;;;;6.26;64.68;98598.97;5080894;27;46268;-79
2021/11/27 07:50:41;;;;;;;;;2.00;2.00;;;;;6.25;64.79;98612.91;5093577;27;45361;-79
2021/11/27 07:53:06;;;;;;;;;2.25;1.75;;;;;6.27;64.66;98616.31;5075038;27;45373;-79
2021/11/27 07:55:32;;;;;;;;;1.25;1.25;;;;;6.26;64.57;98619.84;5076298;28;45258;-80
2021/11/27 07:57:57;;;;;;;;;1.50;1.50;;;;;6.23;64.92;98610.38;5080993;27;46434;-80
2021/11/27 08:00:23;;;;;;;;;3.25;2.25;;;;;6.21;64.65;98614.00;5080394;27;45357;-80
2021/11/27 08:02:49;;;;;;;;;3.00;3.00;;;;;6.18;64.39;98608.00;5080883;27;45519;-80
2021/11/27 08:05:14;;;;;;;;;2.25;2.25;;;;;6.14;64.38;98611.69;5080677;27;45382;-80
2021/11/27 08:07:40;;;;;;;;;3.00;3.00;;;;;6.13;64.52;98612.59;5071236;27;46476;-80
2021/11/27 08:10:08;;;;;;;;;7.25;3.25;;;;;6.12;64.73;98613.53;5080573;27;45361;-80
2021/11/27 08:12:33;;;;;;;;;3.75;3.00;;;;;6.14;64.84;98621.28;5080735;28;45405;-78
2021/11/27 08:14:59;;;;;;;;;3.50;3.00;;;;;6.08;64.39;98612.84;5076334;27;46284;-78
2021/11/27 08:17:24;;;;;;;;;3.25;3.25;;;;;6.10;64.76;98623.19;5075233;28;47104;-78
2021/11/27 08:19:50;;;;;;;;;2.75;2.00;;;;;6.08;64.63;98620.66;5080468;28;45288;-79
2021/11/27 08:22:15;;;;;;;;;2.00;1.75;;;;;6.06;64.46;98619.88;5080478;27;45476;-80
2021/11/27 08:24:41;;;;;;;;;2.50;1.25;;;;;6.00;64.84;98609.72;5080434;27;45553;-79
2021/11/27 08:27:06;;;;;;;;;2.00;1.50;;;;;6.03;64.91;98611.31;5080450;27;46451;-81
2021/11/27 08:29:32;;;;;;;;;4.50;1.75;;;;;6.07;65.38;98616.34;5080060;27;45461;-78
2021/11/27 08:31:57;;;;;;;;;1.75;1.75;;;;;6.10;65.49;98609.31;5080331;27;45746;-84
2021/11/27 08:34:23;;;;;;;;;1.25;1.25;;;;;6.08;65.25;98607.63;5073212;27;46256;-85
2021/11/27 08:36:49;;;;;;;;;3.00;3.00;;;;;6.06;65.29;98614.66;5072357;28;48374;-83
2021/11/27 08:39:14;;;;;;;;;1.00;1.00;;;;;6.05;65.47;98615.56;5077936;27;45238;-84
2021/11/27 08:41:40;;;;;;;;;2.00;2.00;;;;;6.07;65.44;98605.91;5079799;27;45424;-85
2021/11/27 08:44:05;;;;;;;;;1.00;1.00;;;;;6.10;65.43;98609.31;5076215;27;45997;-83
2021/11/27 08:46:31;;;;;;;;;2.00;2.00;;;;;6.11;65.74;98611.84;5064869;27;45440;-82
2021/11/27 08:48:56;;;;;;;;;2.00;2.00;;;;;6.14;65.42;98613.47;5073978;28;45287;-82
2021/11/27 08:51:22;;;;;;;;;2.00;2.00;;;;;6.17;65.39;98621.16;5084943;27;45914;-81
2021/11/27 08:53:47;;;;;;;;;2.00;2.00;;;;;6.13;65.67;98624.81;5081108;27;45445;-79
2021/11/27 08:56:13;;;;;;;;;2.00;2.00;;;;;6.13;65.36;98630.88;5080041;28;45354;-78
2021/11/27 08:58:39;;;;;;;;;2.50;2.50;;;;;6.12;65.93;98623.97;5073422;27;45547;-79
2021/11/27 09:01:07;;;;;;;;;2.00;2.00;;;;;6.14;66.16;98637.78;5075877;27;45519;-79
2021/11/27 09:03:33;;;;;;;;;1.25;1.25;;;;;6.15;65.93;98629.03;5088614;27;47622;-79
2021/11/27 09:06:00;;;;;;;;;1.00;1.00;;;;;6.18;65.72;98634.09;5079953;28;45406;-79
2021/11/27 09:08:26;;;;;;;;;0.50;0.50;;;;;6.17;65.49;98640.22;5079896;28;45708;-79
2021/11/27 09:10:52;;;;;;;;;1.00;1.00;;;;;6.15;66.08;98633.41;5080111;27;45302;-79
2021/11/27 09:13:17;;;;;;;;;1.50;1.50;;;;;6.15;66.27;98641.25;5075379;27;45192;-78
2021/11/27 09:15:42;;;;;;;;;1.00;1.00;;;;;6.15;65.84;98634.25;5063787;28;45653;-79
2021/11/27 09:18:09;;;;;;;;;2.00;2.00;;;;;6.14;65.97;98636.94;5074295;28;45518;-78
2021/11/27 09:20:36;;;;;;;;;2.00;1.00;;;;;6.14;66.23;98635.19;5073474;28;45521;-79
2021/11/27 09:23:02;;;;;;;;;0.75;0.50;;;;;6.15;66.15;98638.63;5071913;28;46365;-79
2021/11/27 09:25:29;;;;;;;;;1.50;1.50;;;;;6.17;66.13;98644.63;5095183;27;47263;-79
2021/11/27 09:27:55;;;;;;;;;1.00;1.00;;;;;6.17;66.01;98644.63;5076249;28;45274;-79
2021/11/27 09:30:22;;;;;;;;;2.50;2.00;;;;;6.21;66.16;98647.91;5071913;28;45214;-79
2021/11/27 09:32:47;;;;;;;;;1.75;1.75;;;;;6.23;66.47;98661.72;5092358;27;46058;-79
2021/11/27 09:35:13;;;;;;;;;1.00;0.00;;;;;6.28;65.88;98655.38;5082809;27;45614;-79
2021/11/27 09:37:39;;;;;;;;;1.25;1.00;;;;;6.34;66.14;98658.59;5077001;27;45972;-80
2021/11/27 09:40:06;;;;;;;;;2.50;2.00;;;;;6.37;66.50;98659.28;5097848;27;45402;-80
2021/11/27 09:42:33;;;;;;;;;2.25;1.75;;;;;6.38;66.65;98666.19;5080402;27;46431;-79
2021/11/27 09:45:01;;;;;;;;;2.00;2.00;;;;;6.43;66.74;98667.72;5076218;28;45417;-80
2021/11/27 09:47:27;;;;;;;;;2.25;2.00;;;;;6.47;65.97;98670.13;5074674;27;45161;-79
2021/11/27 09:49:56;;;;;;;;;2.25;2.25;;;;;6.44;66.01;98667.69;5068110;28;45465;-79
2021/11/27 09:52:22;;;;;;;;;2.00;2.00;;;;;6.47;66.13;98669.28;5073798;28;46027;-79
2021/11/27 09:54:48;;;;;;;;;2.50;1.50;;;;;6.49;66.17;98667.44;5077418;27;47127;-79
2021/11/27 09:57:13;;;;;;;;;2.00;2.00;;;;;6.52;66.35;98678.56;5078625;27;45721;-79
2021/11/27 09:59:40;;;;;;;;;2.75;2.75;;;;;6.57;66.19;98683.56;5078105;28;45179;-81
2021/11/27 10:02:10;;;;;;;;;2.00;1.00;;;;;6.62;66.63;98678.94;5081923;27;47136;-79
2021/11/27 10:04:38;;;;;;;;;1.25;1.25;;;;;6.65;65.80;98683.19;5080597;27;47232;-79
2021/11/27 10:07:04;;;;;;;;;3.00;2.00;;;;;6.61;66.20;98676.44;5085143;27;45915;-79
2021/11/27 10:09:30;;;;;;;;;3.00;3.00;;;;;6.62;66.14;98684.16;5073711;27;45237;-77
2021/11/27 10:11:55;;;;;;;;;1.75;1.75;;;;;6.67;66.32;98691.78;5079058;28;45588;-79
2021/11/27 10:14:22;;;;;;;;;3.00;2.00;;;;;6.71;66.43;98692.47;5091612;27;47584;-77
2021/11/27 10:16:56;;;;;;;;;2.00;1.25;;;;;6.74;66.01;98685.31;5082638;27;45604;-77
2021/11/27 10:19:22;;;;;;;;;1.50;1.00;;;;;6.79;66.55;98686.88;5080629;27;45824;-78
2021/11/27 10:21:54;;;;;;;;;1.00;1.00;;;;;6.84;66.44;98693.53;5078064;28;45570;-78
2021/11/27 10:24:21;;;;;;;;;1.00;1.00;;;;;6.90;66.17;98691.53;5080867;27;46604;-78
2021/11/27 10:26:49;;;;;;;;;2.25;2.00;;;;;6.95;66.68;98690.41;5082371;27;45148;-78
2021/11/27 10:29:32;;;;;;;;;0.75;0.75;;;;;7.02;66.54;98690.06;5082271;28;45473;-78
2021/11/27 10:32:17;;;;;;;;;1.50;1.25;;;;;7.08;66.58;98684.53;5085099;27;47090;-81
2021/11/27 10:34:48;;;;;;;;;1.00;1.00;;;;;7.13;66.57;98681.69;5089868;27;47169;-78
2021/11/27 10:37:26;;;;;;;;;1.00;1.00;;;;;7.17;65.96;98691.91;5073830;28;45280;-78
2021/11/27 10:40:16;;;;;;;;;3.00;1.75;;;;;7.22;66.20;98686.44;5100894;27;45423;-78
2021/11/27 10:42:47;;;;;;;;;0.75;0.75;;;;;7.28;66.27;98688.75;5076729;27;47170;-78
2021/11/27 10:45:13;;;;;;;;;1.25;1.25;;;;;7.32;66.37;98685.03;5094530;27;45287;-77
2021/11/27 10:47:40;;;;;;;;;2.00;2.00;;;;;7.40;66.30;98682.00;5081973;27;45406;-77
2021/11/27 10:50:07;;;;;;;;;1.25;1.25;;;;;7.46;66.51;98687.84;5076318;27;45332;-78
2021/11/27 10:52:37;;;;;;;;;1.75;1.75;;;;;7.49;65.65;98687.66;5069404;28;45478;-78
2021/11/27 10:55:24;;;;;;;;;1.50;1.50;;;;;7.53;66.15;98689.22;5076541;27;47369;-79
2021/11/27 10:57:52;;;;;;;;;2.00;2.00;;;;;7.54;66.13;98691.72;5084733;27;45427;-78
2021/11/27 11:00:32;;;;;;;;;2.00;1.00;;;;;7.58;64.92;98681.13;5081302;27;45199;-79
2021/11/27 11:02:58;;;;;;;;;1.00;1.00;;;;;7.59;64.93;98688.88;5072424;28;47101;-79
2021/11/27 11:05:50;;;;;;;;;1.00;1.00;;;;;7.58;65.16;98689.78;5089102;27;47269;-79
2021/11/27 11:08:15;;;;;;;;;2.00;2.00;;;;;7.61;65.34;98686.16;5073175;27;45687;-79
2021/11/27 11:10:41;;;;;;;;;1.00;1.00;;;;;7.65;65.34;98691.13;5081857;27;45220;-79
2021/11/27 11:13:09;;;;;;;;;1.50;1.50;;;;;7.69;65.53;98683.13;5075559;27;46076;-79
2021/11/27 11:15:43;;;;;;;;;1.00;1.00;;;;;7.78;65.62;98697.50;5078260;28;46373;-79
2021/11/27 11:18:18;;;;;;;;;2.00;2.00;;;;;7.83;65.18;98692.84;5081649;27;45794;-79
2021/11/27 11:20:53;;;;;;;;;2.25;1.00;;;;;7.88;65.86;98709.97;5066951;27;45548;-79
2021/11/27 11:23:28;;;;;;;;;0.25;0.25;;;;;7.95;64.49;98699.19;5073518;27;47301;-79
2021/11/27 11:26:04;;;;;;;;;1.00;1.00;;;;;7.98;65.15;98699.00;5069171;27;47339;-80
2021/11/27 11:28:34;;;;;;;;;3.50;1.00;;;;;8.02;64.78;98697.06;5067968;28;45374;-79
2021/11/27 11:31:04;;;;;;;;;1.25;1.25;;;;;8.08;65.44;98704.56;5081275;28;45232;-79
2021/11/27 11:33:33;;;;;;;;;0.25;0.25;;;;;8.09;64.92;98701.03;5081583;27;45452;-79
2021/11/27 11:36:09;;;;;;;;;1.50;1.50;;;;;8.13;64.59;98709.53;5087500;27;45427;-78
2021/11/27 11:38:39;;;;;;;;;0.75;0.75;;;;;8.14;64.74;98704.25;5099537;27;45271;-79
2021/11/27 11:41:05;;;;;;;;;2.00;2.00;;;;;8.16;64.85;98710.22;5083651;27;45422;-79